SÍGUENOS

APP INUMET

Disponible en Google Play

Productos aeronáuticos

  • SIGMET
  • METAR / SPECI
  • TAF
  • AIREP
  • Aviso de aeródromo
  • Pronárea
  • Carta superficie

Mensajes METAR de la última hora

SUAA 202000Z 22013KT CAVOK 22/18 Q1012
SUCA 202000Z 12008KT 9999 FEW033 BKN080 19/17 Q1011
SULS 202000Z 01006KT CAVOK 26/19 Q1010
SUMU 202000Z 21009KT CAVOK 21/16 Q1010 NOSIG

Mensajes METAR de la última hora - Internacionales


Argentina
SAAR 202000Z 18024G34KT 9999 BKN025 OVC100 19/15 Q1014
SABE 202000Z 21005KT 170V240 CAVOK 26/17 Q1012
SACO 202000Z 20024G36KT 9999 FEW040 SCT100 17/03 Q1020
SAEZ 202000Z 20009KT 170V230 9999 BKN026 BKN100 23/18 Q1013
SAME 202000Z 23004KT 9999 OVC040 12/03 Q1025
Brasil
SBBR 202000Z 05009KT 020V080 9999 FEW040 29/05 Q1019
SBFI 202000Z 10006KT CAVOK 36/07 Q1013
SBFL 202000Z 02011KT CAVOK 24/17 Q1020
SBGR 202000Z 16005KT 7000 NSC 23/17 Q1022
SBPA 202000Z 08007KT CAVOK 31/23 Q1015
SBRJ 202000Z 19013KT CAVOK 26/18 Q1019
SBSP 202000Z 16010KT CAVOK 21/15 Q1023
Chile
SCCI 202000Z 32020KT 9999 FEW020 SCT050 BKN100 09/M01 Q0998 NOSIG
SCEL 202000Z 22006KT 150V270 9999 FEW050 17/05 Q1022 NOSIG
Ecuador
SEQM 202000Z 36018KT 9999 FEW040 22/10 Q1021 NOSIG RMK A3017
EEUU
KMIA 201953Z 12008KT 10SM SCT036 SCT044 32/23 A2993 RMK AO2 SLP135 T03170228
KDCA 201952Z 32011KT 10SM FEW130 FEW250 31/18 A2992 RMK AO2 SLP133 T03060178
KIAD 201952Z 32008KT 10SM FEW160 30/15 A2994 RMK AO2 SLP135 T03000150
KJFK 201951Z 34020KT 10SM FEW031 SCT038 SCT200 BKN270 27/18 A2987 RMK AO2 SLP113 T02670183
KLGA 201951Z 34017G24KT 10SM FEW036 BKN250 26/18 A2987 RMK AO2 PK WND 35026/1929 SLP115 T02560183
Francia
LFPO 202000Z 18003KT CAVOK 12/09 Q1020 NOSIG
LFPO 201930Z 19003KT CAVOK 12/09 Q1021 NOSIG
Venezuela
SVMI 202000Z 02004KT 9999 SCT016 32/25 Q1007

* Datos extraidos del Text DataServer de la NOAA (NOAA TEXT DATA SERVER)

Instituto Uruguayo de Meteorología

Dr. Javier Barrios Amorín 1488 - CP 11200
Mesa Central (598) 1895

Montevideo - Uruguay